Dixon, Iowa
Current Conditions -  °F | °C
As of 6:52 AM on Thursday 23 Oct 2014 (Local Time) from KDVN Reporting Station
Clear Clear  
Wind Chill: 36°   Ceiling: Unl
Heat Index: 42°   Visibility: 10mi
Dew Point: 36°   Wind: 10mph
Humidity: 79%   Direction: 130°SE
Pressure: 30.15"   Gusts: NA
Location:  41.74°N, 90.78°W
Report Text: KDVN 231152Z AUTO 13009KT 10SM CLR 06/02 A3015 RMK AO2 SLP214 T00560022 10072 20044 58001 TSNO
Loading
Personal Weather Stations






























Interactive Weather Map New forecast layout! Learn more

10-Day Weather Forecast

Advertisements
Track Severe Weather on mobile